createdAt,value
2023-03-03T00:01:11.174Z,30.27
2023-03-03T00:03:40.309Z,29.10
2023-03-03T00:06:11.968Z,30.27
2023-03-03T00:08:40.899Z,30.73
2023-03-03T00:11:09.751Z,32.13
2023-03-03T00:13:47.086Z,32.67
2023-03-03T00:16:19.406Z,34.10
2023-03-03T00:18:49.485Z,34.00
2023-03-03T00:21:29.250Z,34.75
2023-03-03T00:24:20.090Z,31.58
2023-03-03T00:26:50.403Z,35.28
2023-03-03T00:29:36.413Z,30.67
2023-03-03T00:32:25.058Z,33.38
2023-03-03T00:34:54.820Z,35.10
2023-03-03T00:37:32.974Z,33.33
2023-03-03T00:40:17.382Z,33.38
2023-03-03T00:42:51.059Z,35.08
2023-03-03T00:45:30.768Z,32.08
2023-03-03T00:48:00.568Z,34.10
2023-03-03T00:50:32.961Z,36.78
2023-03-03T00:53:05.676Z,35.17
2023-03-03T00:55:35.609Z,35.95
2023-03-03T00:58:04.767Z,33.63
2023-03-03T01:00:35.045Z,30.50
2023-03-03T01:03:04.705Z,32.88
2023-03-03T01:05:33.830Z,33.38
2023-03-03T01:08:03.431Z,32.90
2023-03-03T01:10:35.651Z,34.33
2023-03-03T01:13:04.590Z,35.42
2023-03-03T01:15:34.712Z,33.85
2023-03-03T01:18:03.502Z,35.30
2023-03-03T01:20:31.840Z,32.53
2023-03-03T01:23:00.503Z,35.38
2023-03-03T01:25:30.233Z,36.92
2023-03-03T01:27:58.818Z,36.08
2023-03-03T01:30:27.922Z,36.28
2023-03-03T01:32:57.633Z,34.55
2023-03-03T01:35:26.250Z,34.22
2023-03-03T01:37:54.755Z,37.15
2023-03-03T01:40:27.447Z,36.33
2023-03-03T01:42:55.926Z,33.38
2023-03-03T01:45:26.815Z,34.15
2023-03-03T01:48:00.736Z,33.30
2023-03-03T01:50:37.330Z,33.40
2023-03-03T01:53:08.593Z,34.63
2023-03-03T01:55:40.348Z,34.28
2023-03-03T01:58:12.757Z,33.00
2023-03-03T02:00:43.582Z,34.55
2023-03-03T02:03:13.458Z,33.83
2023-03-03T02:05:44.465Z,33.63
2023-03-03T02:08:16.438Z,34.50
2023-03-03T02:10:46.424Z,35.28
2023-03-03T02:13:15.626Z,33.17
2023-03-03T02:15:44.314Z,32.17
2023-03-03T02:18:16.895Z,32.13
2023-03-03T02:20:55.084Z,32.33
2023-03-03T02:23:27.548Z,32.80
2023-03-03T02:26:10.669Z,31.25
2023-03-03T02:28:41.044Z,31.67
2023-03-03T02:31:13.497Z,32.70
2023-03-03T02:33:42.779Z,30.83
2023-03-03T02:36:14.959Z,28.17
2023-03-03T02:38:49.586Z,27.52
2023-03-03T02:41:29.853Z,28.02
2023-03-03T02:44:02.323Z,27.70
2023-03-03T02:46:34.877Z,26.08
2023-03-03T02:49:03.686Z,25.58
2023-03-03T02:51:32.154Z,25.45
2023-03-03T02:54:00.531Z,24.48
2023-03-03T02:56:30.713Z,25.10
2023-03-03T02:58:59.199Z,23.23
2023-03-03T03:01:27.985Z,25.25
2023-03-03T03:03:56.459Z,24.67
2023-03-03T03:06:24.877Z,25.52
2023-03-03T03:08:53.376Z,24.70
2023-03-03T03:11:21.812Z,25.33
2023-03-03T03:13:51.992Z,25.10
2023-03-03T03:16:21.067Z,24.88
2023-03-03T03:18:50.436Z,26.38
2023-03-03T03:21:18.832Z,26.80
2023-03-03T03:23:47.375Z,29.80
2023-03-03T03:26:15.748Z,28.75
2023-03-03T03:28:44.271Z,32.85
2023-03-03T03:31:14.299Z,30.20
2023-03-03T03:33:42.814Z,32.10
2023-03-03T03:36:11.885Z,31.23
2023-03-03T03:38:40.767Z,33.30
2023-03-03T03:41:09.416Z,34.45
2023-03-03T03:43:38.106Z,35.28
2023-03-03T03:46:07.202Z,36.47
2023-03-03T03:48:37.028Z,35.53
2023-03-03T03:51:05.736Z,35.55
2023-03-03T03:53:34.253Z,37.58
2023-03-03T03:56:03.707Z,36.38
2023-03-03T03:58:32.220Z,37.25
2023-03-03T04:01:04.875Z,37.92
2023-03-03T04:03:33.426Z,37.83
2023-03-03T04:06:03.335Z,35.95
2023-03-03T04:08:31.907Z,36.00
2023-03-03T04:11:00.228Z,38.00
2023-03-03T04:13:32.109Z,40.72
2023-03-03T04:16:01.406Z,39.80
2023-03-03T04:18:29.940Z,40.53
2023-03-03T04:20:58.314Z,37.33
2023-03-03T04:23:28.188Z,39.70
2023-03-03T04:25:56.567Z,39.08
2023-03-03T04:28:25.410Z,40.13
2023-03-03T04:30:53.816Z,40.50
2023-03-03T04:33:22.258Z,38.78
2023-03-03T04:35:51.363Z,39.45
2023-03-03T04:38:19.938Z,38.80
2023-03-03T04:40:49.696Z,36.00
2023-03-03T04:43:18.409Z,39.92
2023-03-03T04:45:46.967Z,37.30
2023-03-03T04:48:15.474Z,35.95
2023-03-03T04:50:44.179Z,33.72
2023-03-03T04:53:12.582Z,34.28
2023-03-03T04:55:41.218Z,36.83
2023-03-03T04:58:11.170Z,34.88
2023-03-03T05:00:39.919Z,34.90
2023-03-03T05:03:08.815Z,34.85
2023-03-03T05:05:37.165Z,34.95
2023-03-03T05:08:05.913Z,34.33
2023-03-03T05:10:35.175Z,34.00
2023-03-03T05:13:03.837Z,33.97
2023-03-03T05:15:33.969Z,34.63
2023-03-03T05:18:03.179Z,32.75
2023-03-03T05:20:31.539Z,28.70
2023-03-03T05:23:01.704Z,25.52
2023-03-03T05:25:30.173Z,28.50
2023-03-03T05:27:58.470Z,25.45
2023-03-03T05:30:26.929Z,25.17
2023-03-03T05:32:56.641Z,27.63
2023-03-03T05:35:25.110Z,27.15
2023-03-03T05:37:53.965Z,27.80
2023-03-03T05:40:22.746Z,28.27
2023-03-03T05:42:51.731Z,30.48
2023-03-03T05:45:21.340Z,30.25
2023-03-03T05:47:50.363Z,33.63
2023-03-03T05:50:20.941Z,32.80
2023-03-03T05:52:49.986Z,31.13
2023-03-03T05:55:18.720Z,32.00
2023-03-03T05:57:47.231Z,30.58
2023-03-03T06:00:17.467Z,30.52
2023-03-03T06:02:46.890Z,29.13
2023-03-03T06:05:15.325Z,31.75
2023-03-03T06:07:45.193Z,30.98
2023-03-03T06:10:13.662Z,34.72
2023-03-03T06:12:42.529Z,30.45
2023-03-03T06:15:12.101Z,29.15
2023-03-03T06:17:40.719Z,29.30
2023-03-03T06:20:12.468Z,28.23
2023-03-03T06:22:40.880Z,30.63
2023-03-03T06:25:11.969Z,30.50
2023-03-03T06:27:40.391Z,29.35
2023-03-03T06:30:09.762Z,30.15
2023-03-03T06:32:38.843Z,30.90
2023-03-03T06:35:08.021Z,30.58
2023-03-03T06:37:36.487Z,32.05
2023-03-03T06:40:05.531Z,35.20
2023-03-03T06:42:35.345Z,37.33
2023-03-03T06:45:04.059Z,35.42
2023-03-03T06:47:33.940Z,36.53
2023-03-03T06:50:02.394Z,34.42
2023-03-03T06:52:30.798Z,38.03
2023-03-03T06:55:02.325Z,37.75
2023-03-03T06:57:33.045Z,37.65
2023-03-03T07:00:20.387Z,38.25
2023-03-03T07:02:49.099Z,41.50
2023-03-03T07:05:19.125Z,39.00
2023-03-03T07:07:47.633Z,33.97
2023-03-03T07:10:23.916Z,34.63
2023-03-03T07:12:52.318Z,31.30
2023-03-03T07:15:23.945Z,30.77
2023-03-03T07:17:58.296Z,26.30
2023-03-03T07:20:30.151Z,29.35
2023-03-03T07:22:59.447Z,24.85
2023-03-03T07:25:32.735Z,22.08
2023-03-03T07:28:09.672Z,22.80
2023-03-03T07:30:39.692Z,21.85
2023-03-03T07:33:21.318Z,23.85
2023-03-03T07:35:49.622Z,23.50
2023-03-03T07:38:32.958Z,22.70
2023-03-03T07:41:04.379Z,22.73
2023-03-03T07:43:38.433Z,20.30
2023-03-03T07:46:27.934Z,22.10
2023-03-03T07:48:57.813Z,20.40
2023-03-03T07:51:29.188Z,20.17
2023-03-03T07:54:15.824Z,21.93
2023-03-03T07:56:44.189Z,21.75
2023-03-03T07:59:22.923Z,21.98
2023-03-03T08:01:58.863Z,22.80
2023-03-03T08:04:33.800Z,19.55
2023-03-03T08:07:03.372Z,21.23
2023-03-03T08:09:51.233Z,21.60
2023-03-03T08:12:34.303Z,14.75
2023-03-03T08:15:24.437Z,15.88
2023-03-03T08:17:56.253Z,16.80
2023-03-03T08:20:49.321Z,20.10
2023-03-03T08:23:19.263Z,17.45
2023-03-03T08:25:48.466Z,20.85
2023-03-03T08:28:35.253Z,18.52
2023-03-03T08:31:16.874Z,18.27
2023-03-03T08:33:50.464Z,18.67
2023-03-03T08:36:18.794Z,24.33
2023-03-03T08:38:47.263Z,25.23
2023-03-03T08:41:16.772Z,24.55
2023-03-03T08:43:45.820Z,23.70
2023-03-03T08:46:58.256Z,25.67
2023-03-03T08:49:27.961Z,23.33
2023-03-03T08:51:57.325Z,26.27
2023-03-03T08:54:26.677Z,29.30
2023-03-03T08:56:55.086Z,26.75
2023-03-03T08:59:23.520Z,25.67
2023-03-03T09:01:53.070Z,28.60
2023-03-03T09:04:21.404Z,26.48
2023-03-03T09:06:51.208Z,25.20
2023-03-03T09:09:24.779Z,26.40
2023-03-03T09:11:55.962Z,26.50
2023-03-03T09:14:27.897Z,26.10
2023-03-03T09:16:58.341Z,22.98
2023-03-03T09:19:29.643Z,20.50
2023-03-03T09:22:06.274Z,22.20
2023-03-03T09:24:37.704Z,24.48
2023-03-03T09:27:17.499Z,23.70
2023-03-03T09:29:45.994Z,22.35
2023-03-03T09:32:28.657Z,21.67
2023-03-03T09:34:57.156Z,12.48
2023-03-03T09:37:35.573Z,20.10
2023-03-03T09:40:35.227Z,20.00
2023-03-03T09:43:07.904Z,19.80
2023-03-03T09:45:50.166Z,20.48
2023-03-03T09:48:36.484Z,20.60
2023-03-03T09:51:26.852Z,18.08
2023-03-03T09:54:03.398Z,20.27
2023-03-03T09:56:35.106Z,17.30
2023-03-03T09:59:15.038Z,18.98
2023-03-03T10:02:05.985Z,20.55
2023-03-03T10:04:44.603Z,22.63
2023-03-03T10:07:28.119Z,19.73
2023-03-03T10:10:21.256Z,14.82
2023-03-03T10:13:02.101Z,17.50
2023-03-03T10:15:40.494Z,13.13
2023-03-03T10:18:24.536Z,16.05
2023-03-03T10:21:03.245Z,16.98
2023-03-03T10:23:48.526Z,19.90
2023-03-03T10:26:42.156Z,18.10
2023-03-03T10:29:29.754Z,16.67
2023-03-03T10:32:27.768Z,16.65
2023-03-03T10:35:28.631Z,15.07
2023-03-03T10:38:21.022Z,15.95
2023-03-03T10:41:00.040Z,12.43
2023-03-03T10:43:48.989Z,12.98
2023-03-03T10:46:46.768Z,12.00
2023-03-03T10:49:28.725Z,13.50
2023-03-03T10:52:20.537Z,8.90
2023-03-03T10:55:04.976Z,5.57
2023-03-03T10:57:38.531Z,8.15
2023-03-03T11:00:23.165Z,8.13
2023-03-03T11:03:11.184Z,8.68
2023-03-03T11:05:44.020Z,7.20
2023-03-03T11:08:20.504Z,4.50
2023-03-03T11:10:56.117Z,8.05
2023-03-03T11:13:30.871Z,7.00
2023-03-03T11:16:22.850Z,7.10
2023-03-03T11:19:04.820Z,4.15
2023-03-03T11:21:41.504Z,7.85
2023-03-03T11:24:20.847Z,7.18
2023-03-03T11:27:07.640Z,7.72
2023-03-03T11:29:43.114Z,10.30
2023-03-03T11:32:23.343Z,9.05
2023-03-03T11:35:01.831Z,7.43
2023-03-03T11:37:39.007Z,4.45
2023-03-03T11:40:18.452Z,5.20
2023-03-03T11:43:01.496Z,5.20
2023-03-03T11:45:38.837Z,4.55
2023-03-03T11:48:15.951Z,5.72
2023-03-03T11:50:53.790Z,3.65
2023-03-03T11:53:37.550Z,4.57
2023-03-03T11:56:18.129Z,5.20
2023-03-03T11:58:52.014Z,3.95
2023-03-03T12:01:28.552Z,4.95
2023-03-03T12:04:02.322Z,5.22
2023-03-03T12:06:42.067Z,6.05
2023-03-03T12:09:27.688Z,5.15
2023-03-03T12:12:00.677Z,5.53
2023-03-03T12:14:47.576Z,5.05
2023-03-03T12:17:29.346Z,6.07
2023-03-03T12:20:04.200Z,4.80
2023-03-03T12:22:35.710Z,5.15
2023-03-03T12:25:27.870Z,5.60
2023-03-03T12:28:06.736Z,6.45
2023-03-03T12:30:50.482Z,5.72
2023-03-03T12:33:28.959Z,5.93
2023-03-03T12:36:08.357Z,6.50
2023-03-03T12:38:44.248Z,4.47
2023-03-03T12:41:20.503Z,4.75
2023-03-03T12:43:58.173Z,5.20
2023-03-03T12:46:35.768Z,4.75
2023-03-03T12:49:04.904Z,4.88
2023-03-03T12:51:41.168Z,5.50
2023-03-03T12:54:37.172Z,7.07
2023-03-03T12:57:21.010Z,3.70
2023-03-03T13:00:04.625Z,4.22
2023-03-03T13:02:58.484Z,3.28
2023-03-03T13:05:34.592Z,3.70
2023-03-03T13:08:31.413Z,4.45
2023-03-03T13:11:08.775Z,3.80
2023-03-03T13:13:44.756Z,3.65
2023-03-03T13:16:17.355Z,3.50
2023-03-03T13:18:55.036Z,3.85
2023-03-03T13:21:28.294Z,2.88
2023-03-03T13:24:07.332Z,3.50
2023-03-03T13:26:42.860Z,2.80
2023-03-03T13:29:20.326Z,2.67
2023-03-03T13:31:53.433Z,2.95
2023-03-03T13:34:32.180Z,2.90
2023-03-03T13:37:05.110Z,2.17
2023-03-03T13:39:39.504Z,2.10
2023-03-03T13:42:14.638Z,2.10
2023-03-03T13:44:47.371Z,2.47
2023-03-03T13:47:22.771Z,3.00
2023-03-03T13:50:12.204Z,2.35
2023-03-03T13:52:49.025Z,1.95
2023-03-03T13:55:30.907Z,1.73
2023-03-03T13:58:06.123Z,2.08
2023-03-03T14:00:47.394Z,1.60
2023-03-03T14:03:46.734Z,2.10
2023-03-03T14:06:17.888Z,1.52
2023-03-03T14:09:01.110Z,1.50
2023-03-03T14:11:41.614Z,2.40
2023-03-03T14:14:23.229Z,2.00
2023-03-03T14:16:54.200Z,2.35
2023-03-03T14:19:27.770Z,2.80
2023-03-03T14:22:08.249Z,2.35
2023-03-03T14:25:04.019Z,2.70
2023-03-03T14:27:40.300Z,2.30
2023-03-03T14:30:30.369Z,2.63
2023-03-03T14:33:05.112Z,3.30
2023-03-03T14:35:35.963Z,2.72
2023-03-03T14:38:07.381Z,2.75
2023-03-03T14:40:38.976Z,3.00
2023-03-03T14:43:23.581Z,3.75
2023-03-03T14:45:52.071Z,3.55
2023-03-03T14:48:22.459Z,4.25
2023-03-03T14:50:52.750Z,3.65
2023-03-03T14:53:34.003Z,4.35
2023-03-03T14:56:25.232Z,4.82
2023-03-03T14:58:56.472Z,4.10
2023-03-03T15:01:32.676Z,3.17
2023-03-03T15:04:03.339Z,3.63
2023-03-03T15:06:42.903Z,4.97
2023-03-03T15:09:32.774Z,3.35
2023-03-03T15:12:01.847Z,4.22
2023-03-03T15:14:39.586Z,4.32
2023-03-03T15:17:30.400Z,5.25
2023-03-03T15:20:18.287Z,4.40
2023-03-03T15:22:51.613Z,4.05
2023-03-03T15:25:42.556Z,4.15
2023-03-03T15:28:28.406Z,3.03
2023-03-03T15:31:04.978Z,4.50
2023-03-03T15:33:39.664Z,4.25
2023-03-03T15:36:15.187Z,4.60
2023-03-03T15:38:55.372Z,5.55
2023-03-03T15:41:30.922Z,4.03
2023-03-03T15:44:14.946Z,3.88
2023-03-03T15:46:59.409Z,4.40
2023-03-03T15:49:55.181Z,4.18
2023-03-03T15:52:41.054Z,3.38
2023-03-03T15:55:36.681Z,3.88
2023-03-03T15:58:33.232Z,3.53
2023-03-03T16:01:15.596Z,2.80
2023-03-03T16:03:48.869Z,2.85
2023-03-03T16:06:24.947Z,2.40
2023-03-03T16:09:03.605Z,2.10
2023-03-03T16:11:40.876Z,1.70
2023-03-03T16:14:40.295Z,1.90
2023-03-03T16:17:21.721Z,1.02
2023-03-03T16:19:59.655Z,0.75
2023-03-03T16:22:50.988Z,1.20
2023-03-03T16:26:03.140Z,1.60
2023-03-03T16:28:44.096Z,0.90
2023-03-03T16:31:21.113Z,1.25
2023-03-03T16:33:58.204Z,1.00
2023-03-03T16:36:38.997Z,1.30
2023-03-03T16:39:14.531Z,1.42
2023-03-03T16:41:52.489Z,1.40
2023-03-03T16:44:40.902Z,2.45
2023-03-03T16:47:21.831Z,2.35
2023-03-03T16:49:56.919Z,2.58
2023-03-03T16:52:36.760Z,2.67
2023-03-03T16:55:14.701Z,2.70
2023-03-03T16:57:54.506Z,1.80
2023-03-03T17:00:24.989Z,1.98
2023-03-03T17:03:29.860Z,1.92
2023-03-03T17:06:05.772Z,2.10
2023-03-03T17:09:12.799Z,2.53
2023-03-03T17:11:58.158Z,1.50
2023-03-03T17:14:48.792Z,2.00
2023-03-03T17:17:26.819Z,2.22
2023-03-03T17:20:08.468Z,1.70
2023-03-03T17:22:49.168Z,1.60
2023-03-03T17:25:24.026Z,1.00
2023-03-03T17:28:13.881Z,1.83
2023-03-03T17:30:51.982Z,1.40
2023-03-03T17:33:40.489Z,2.20
2023-03-03T17:36:45.461Z,1.48
2023-03-03T17:39:37.913Z,1.85
2023-03-03T17:42:17.273Z,2.20
2023-03-03T17:44:55.214Z,2.53
2023-03-03T17:47:39.862Z,2.08
2023-03-03T17:50:22.763Z,2.13
2023-03-03T17:53:17.168Z,2.42
2023-03-03T17:56:11.359Z,1.17
2023-03-03T17:59:18.806Z,1.20
2023-03-03T18:02:02.789Z,1.13
2023-03-03T18:04:51.392Z,0.82
2023-03-03T18:07:44.397Z,0.60
2023-03-03T18:10:57.226Z,0.40
2023-03-03T18:13:58.506Z,0.93
2023-03-03T18:16:43.143Z,0.30
2023-03-03T18:19:30.836Z,0.55
2023-03-03T18:22:06.962Z,0.40
2023-03-03T18:24:40.953Z,0.50
2023-03-03T18:27:33.145Z,0.30
2023-03-03T18:30:28.730Z,0.40
2023-03-03T18:33:14.199Z,0.40
2023-03-03T18:35:44.537Z,0.43
2023-03-03T18:38:35.024Z,0.40
2023-03-03T18:41:06.299Z,0.52
2023-03-03T18:43:59.787Z,0.70
2023-03-03T18:46:50.064Z,0.65
2023-03-03T18:49:40.262Z,0.85
2023-03-03T18:52:25.108Z,0.70
2023-03-03T18:55:30.329Z,0.80
2023-03-03T18:58:31.401Z,0.88
2023-03-03T19:01:22.181Z,0.82
2023-03-03T19:04:08.349Z,0.93
2023-03-03T19:07:15.124Z,0.80
2023-03-03T19:09:57.255Z,1.10
2023-03-03T19:12:46.659Z,0.98
2023-03-03T19:15:47.730Z,0.95
2023-03-03T19:18:19.606Z,1.10
2023-03-03T19:20:53.585Z,1.17
2023-03-03T19:23:27.810Z,0.93
2023-03-03T19:26:20.961Z,0.75
2023-03-03T19:28:56.974Z,1.60
2023-03-03T19:31:31.244Z,0.98
2023-03-03T19:34:07.480Z,0.90
2023-03-03T19:36:58.778Z,1.30
2023-03-03T19:39:46.719Z,0.80
2023-03-03T19:42:26.459Z,0.70
2023-03-03T19:45:16.804Z,0.63
2023-03-03T19:47:49.786Z,0.70
2023-03-03T19:50:30.675Z,0.52
2023-03-03T19:53:06.239Z,0.80
2023-03-03T19:55:46.976Z,0.57
2023-03-03T19:58:29.264Z,0.60
2023-03-03T20:01:08.542Z,0.65
2023-03-03T20:03:56.806Z,0.88
2023-03-03T20:06:44.901Z,0.50
2023-03-03T20:09:24.029Z,0.80
2023-03-03T20:12:17.256Z,0.60
2023-03-03T20:14:50.164Z,0.60
2023-03-03T20:17:54.666Z,0.70
2023-03-03T20:20:52.967Z,0.55
2023-03-03T20:23:25.642Z,0.70
2023-03-03T20:25:59.879Z,0.65
2023-03-03T20:28:58.686Z,0.50
2023-03-03T20:31:36.313Z,0.60
2023-03-03T20:34:16.328Z,0.80
2023-03-03T20:36:56.527Z,1.00
2023-03-03T20:39:39.727Z,0.60
2023-03-03T20:42:18.633Z,0.63
2023-03-03T20:45:01.029Z,0.60
2023-03-03T20:47:42.205Z,0.75
2023-03-03T20:50:19.156Z,0.60
2023-03-03T20:53:00.337Z,0.73
2023-03-03T20:55:39.576Z,0.50
2023-03-03T20:58:13.950Z,0.40
2023-03-03T21:00:51.494Z,0.45
2023-03-03T21:03:28.406Z,0.60
2023-03-03T21:05:59.606Z,0.98
2023-03-03T21:08:49.560Z,0.47
2023-03-03T21:11:21.010Z,0.57
2023-03-03T21:13:52.025Z,0.40
2023-03-03T21:16:33.577Z,1.08
2023-03-03T21:19:03.568Z,0.57
2023-03-03T21:21:33.654Z,0.43
2023-03-03T21:24:02.308Z,0.70
2023-03-03T21:26:54.101Z,0.77
2023-03-03T21:29:25.797Z,1.10
2023-03-03T21:31:57.325Z,0.90
2023-03-03T21:34:31.294Z,0.80
2023-03-03T21:37:00.618Z,1.25
2023-03-03T21:39:31.264Z,1.27
2023-03-03T21:42:02.780Z,1.30
2023-03-03T21:44:34.863Z,0.80
2023-03-03T21:47:06.359Z,1.10
2023-03-03T21:49:35.204Z,1.20
2023-03-03T21:52:04.152Z,1.10
2023-03-03T21:54:33.025Z,0.57
2023-03-03T21:57:03.263Z,0.68
2023-03-03T21:59:32.452Z,0.90
2023-03-03T22:02:00.964Z,0.88
2023-03-03T22:04:31.728Z,1.20
2023-03-03T22:07:00.222Z,1.60
2023-03-03T22:09:29.550Z,1.55
2023-03-03T22:11:57.949Z,1.20
2023-03-03T22:14:26.703Z,0.95
2023-03-03T22:16:55.109Z,1.08
2023-03-03T22:19:23.844Z,1.17
2023-03-03T22:21:53.572Z,1.05
2023-03-03T22:24:21.958Z,1.08
2023-03-03T22:26:50.296Z,1.05
2023-03-03T22:29:22.905Z,0.70
2023-03-03T22:31:51.596Z,0.98
2023-03-03T22:34:20.250Z,1.25
2023-03-03T22:36:48.568Z,1.13
2023-03-03T22:39:18.483Z,1.10
2023-03-03T22:41:46.810Z,1.10
2023-03-03T22:44:15.183Z,1.05
2023-03-03T22:46:43.630Z,1.73
2023-03-03T22:49:11.997Z,1.33
2023-03-03T22:51:40.720Z,1.52
2023-03-03T22:54:09.049Z,0.80
2023-03-03T22:56:38.858Z,0.82
2023-03-03T22:59:07.574Z,1.15
2023-03-03T23:01:36.036Z,1.25
2023-03-03T23:04:04.583Z,1.40
2023-03-03T23:06:33.299Z,1.05
2023-03-03T23:09:01.746Z,0.50
2023-03-03T23:11:30.448Z,1.20
2023-03-03T23:14:00.307Z,1.13
2023-03-03T23:16:29.515Z,1.20
2023-03-03T23:18:57.842Z,1.08
2023-03-03T23:21:26.272Z,1.70
2023-03-03T23:23:54.612Z,0.73
2023-03-03T23:26:22.978Z,1.10
2023-03-03T23:28:51.331Z,0.70
2023-03-03T23:31:21.140Z,0.93
2023-03-03T23:33:49.917Z,1.95
2023-03-03T23:36:18.384Z,1.30
2023-03-03T23:38:46.852Z,1.88
2023-03-03T23:41:15.228Z,1.42
2023-03-03T23:43:43.586Z,0.88
2023-03-03T23:46:12.096Z,1.40
2023-03-03T23:48:41.856Z,0.80
2023-03-03T23:51:10.379Z,1.10
2023-03-03T23:53:38.685Z,1.10
2023-03-03T23:56:08.269Z,1.23
2023-03-03T23:58:36.817Z,0.80
